sensor_id;sensor_type;location;lat;lon;timestamp;P1;durP1;ratioP1;P2;durP2;ratioP2
52740;SDS011;38634;52.138;9.912;2024-02-21T00:00:56;12.80;;;3.97;;
52740;SDS011;38634;52.138;9.912;2024-02-21T00:03:40;13.32;;;3.65;;
52740;SDS011;38634;52.138;9.912;2024-02-21T00:06:25;13.02;;;3.53;;
52740;SDS011;38634;52.138;9.912;2024-02-21T00:09:10;13.93;;;4.38;;
52740;SDS011;38634;52.138;9.912;2024-02-21T00:11:54;13.88;;;3.88;;
52740;SDS011;38634;52.138;9.912;2024-02-21T00:14:39;16.42;;;3.90;;
52740;SDS011;38634;52.138;9.912;2024-02-21T00:17:24;12.07;;;3.80;;
52740;SDS011;38634;52.138;9.912;2024-02-21T00:20:09;14.90;;;4.30;;
52740;SDS011;38634;52.138;9.912;2024-02-21T00:22:54;12.98;;;3.83;;
52740;SDS011;38634;52.138;9.912;2024-02-21T00:25:39;13.27;;;4.07;;
52740;SDS011;38634;52.138;9.912;2024-02-21T00:28:23;13.20;;;4.35;;
52740;SDS011;38634;52.138;9.912;2024-02-21T00:31:08;13.57;;;3.85;;
52740;SDS011;38634;52.138;9.912;2024-02-21T00:33:53;13.27;;;3.88;;
52740;SDS011;38634;52.138;9.912;2024-02-21T00:36:37;16.85;;;4.63;;
52740;SDS011;38634;52.138;9.912;2024-02-21T00:39:22;12.90;;;4.47;;
52740;SDS011;38634;52.138;9.912;2024-02-21T00:42:07;11.57;;;4.03;;
52740;SDS011;38634;52.138;9.912;2024-02-21T00:44:51;15.25;;;4.32;;
52740;SDS011;38634;52.138;9.912;2024-02-21T00:47:36;12.95;;;4.25;;
52740;SDS011;38634;52.138;9.912;2024-02-21T00:50:21;33.20;;;6.78;;
52740;SDS011;38634;52.138;9.912;2024-02-21T00:53:05;9.57;;;3.60;;
52740;SDS011;38634;52.138;9.912;2024-02-21T00:55:53;15.10;;;5.00;;
52740;SDS011;38634;52.138;9.912;2024-02-21T00:58:37;19.70;;;4.97;;
52740;SDS011;38634;52.138;9.912;2024-02-21T01:01:22;24.63;;;5.43;;
52740;SDS011;38634;52.138;9.912;2024-02-21T01:04:08;19.08;;;4.80;;
52740;SDS011;38634;52.138;9.912;2024-02-21T01:06:53;13.45;;;3.92;;
52740;SDS011;38634;52.138;9.912;2024-02-21T01:09:38;12.15;;;4.05;;
52740;SDS011;38634;52.138;9.912;2024-02-21T01:12:22;14.35;;;4.18;;
52740;SDS011;38634;52.138;9.912;2024-02-21T01:15:07;14.45;;;4.57;;
52740;SDS011;38634;52.138;9.912;2024-02-21T01:17:52;22.08;;;5.05;;
52740;SDS011;38634;52.138;9.912;2024-02-21T01:20:38;14.65;;;4.53;;
52740;SDS011;38634;52.138;9.912;2024-02-21T01:23:23;13.63;;;4.18;;
52740;SDS011;38634;52.138;9.912;2024-02-21T01:26:07;14.65;;;4.97;;
52740;SDS011;38634;52.138;9.912;2024-02-21T01:28:52;19.48;;;5.97;;
52740;SDS011;38634;52.138;9.912;2024-02-21T01:31:37;17.52;;;4.78;;
52740;SDS011;38634;52.138;9.912;2024-02-21T01:34:21;16.08;;;4.45;;
52740;SDS011;38634;52.138;9.912;2024-02-21T01:37:06;16.75;;;5.15;;
52740;SDS011;38634;52.138;9.912;2024-02-21T01:39:51;18.35;;;5.63;;
52740;SDS011;38634;52.138;9.912;2024-02-21T01:42:40;15.90;;;4.40;;
52740;SDS011;38634;52.138;9.912;2024-02-21T01:45:24;27.08;;;5.55;;
52740;SDS011;38634;52.138;9.912;2024-02-21T01:48:09;18.48;;;4.57;;
52740;SDS011;38634;52.138;9.912;2024-02-21T01:50:54;13.02;;;4.00;;
52740;SDS011;38634;52.138;9.912;2024-02-21T01:53:42;16.10;;;4.80;;
52740;SDS011;38634;52.138;9.912;2024-02-21T01:56:27;16.77;;;4.82;;
52740;SDS011;38634;52.138;9.912;2024-02-21T01:59:12;17.10;;;4.15;;
52740;SDS011;38634;52.138;9.912;2024-02-21T02:01:57;15.63;;;4.30;;
52740;SDS011;38634;52.138;9.912;2024-02-21T02:04:42;17.50;;;4.13;;
52740;SDS011;38634;52.138;9.912;2024-02-21T02:07:27;16.98;;;4.25;;
52740;SDS011;38634;52.138;9.912;2024-02-21T02:10:11;15.63;;;4.10;;
52740;SDS011;38634;52.138;9.912;2024-02-21T02:12:56;19.02;;;4.60;;
52740;SDS011;38634;52.138;9.912;2024-02-21T02:15:41;15.48;;;4.03;;
52740;SDS011;38634;52.138;9.912;2024-02-21T02:18:30;15.18;;;4.25;;
52740;SDS011;38634;52.138;9.912;2024-02-21T02:21:21;14.45;;;4.97;;
52740;SDS011;38634;52.138;9.912;2024-02-21T02:24:10;10.43;;;3.28;;
52740;SDS011;38634;52.138;9.912;2024-02-21T02:26:57;15.77;;;4.32;;
52740;SDS011;38634;52.138;9.912;2024-02-21T02:29:41;16.92;;;4.63;;
52740;SDS011;38634;52.138;9.912;2024-02-21T02:32:26;15.90;;;4.45;;
52740;SDS011;38634;52.138;9.912;2024-02-21T02:35:10;15.68;;;4.95;;
52740;SDS011;38634;52.138;9.912;2024-02-21T02:37:55;19.55;;;5.18;;
52740;SDS011;38634;52.138;9.912;2024-02-21T02:40:40;13.25;;;4.28;;
52740;SDS011;38634;52.138;9.912;2024-02-21T02:43:25;11.13;;;3.33;;
52740;SDS011;38634;52.138;9.912;2024-02-21T02:46:09;16.83;;;4.75;;
52740;SDS011;38634;52.138;9.912;2024-02-21T02:48:54;13.77;;;3.88;;
52740;SDS011;38634;52.138;9.912;2024-02-21T02:51:42;16.60;;;4.20;;
52740;SDS011;38634;52.138;9.912;2024-02-21T02:54:27;17.80;;;5.40;;
52740;SDS011;38634;52.138;9.912;2024-02-21T02:57:11;17.33;;;4.65;;
52740;SDS011;38634;52.138;9.912;2024-02-21T02:59:56;16.70;;;5.30;;
52740;SDS011;38634;52.138;9.912;2024-02-21T03:02:41;17.63;;;5.35;;
52740;SDS011;38634;52.138;9.912;2024-02-21T03:05:28;17.77;;;5.05;;
52740;SDS011;38634;52.138;9.912;2024-02-21T03:08:12;34.13;;;4.38;;
52740;SDS011;38634;52.138;9.912;2024-02-21T03:10:57;18.40;;;4.57;;
52740;SDS011;38634;52.138;9.912;2024-02-21T03:13:43;16.23;;;4.25;;
52740;SDS011;38634;52.138;9.912;2024-02-21T03:16:27;18.67;;;4.88;;
52740;SDS011;38634;52.138;9.912;2024-02-21T03:19:12;14.50;;;3.97;;
52740;SDS011;38634;52.138;9.912;2024-02-21T12:00:49;15.57;;;3.83;;
52740;SDS011;38634;52.138;9.912;2024-02-21T12:03:34;20.83;;;5.68;;
52740;SDS011;38634;52.138;9.912;2024-02-21T12:06:20;29.30;;;5.78;;
52740;SDS011;38634;52.138;9.912;2024-02-21T12:09:07;35.83;;;7.72;;
52740;SDS011;38634;52.138;9.912;2024-02-21T12:14:44;48.22;;;11.18;;
52740;SDS011;38634;52.138;9.912;2024-02-21T12:17:28;39.28;;;9.27;;
52740;SDS011;38634;52.138;9.912;2024-02-21T12:20:14;25.50;;;6.20;;
52740;SDS011;38634;52.138;9.912;2024-02-21T12:23:02;23.65;;;6.07;;
52740;SDS011;38634;52.138;9.912;2024-02-21T12:25:48;51.83;;;11.55;;
52740;SDS011;38634;52.138;9.912;2024-02-21T12:28:32;49.95;;;11.05;;
52740;SDS011;38634;52.138;9.912;2024-02-21T12:31:17;31.95;;;6.53;;
52740;SDS011;38634;52.138;9.912;2024-02-21T12:34:02;29.80;;;7.65;;
52740;SDS011;38634;52.138;9.912;2024-02-21T12:36:47;44.75;;;9.93;;
52740;SDS011;38634;52.138;9.912;2024-02-21T12:39:32;53.33;;;11.55;;
52740;SDS011;38634;52.138;9.912;2024-02-21T12:42:16;32.13;;;7.38;;
52740;SDS011;38634;52.138;9.912;2024-02-21T12:45:04;30.23;;;6.70;;
52740;SDS011;38634;52.138;9.912;2024-02-21T12:47:49;49.10;;;10.85;;
52740;SDS011;38634;52.138;9.912;2024-02-21T12:50:33;48.63;;;11.15;;
52740;SDS011;38634;52.138;9.912;2024-02-21T12:53:21;27.75;;;6.55;;
52740;SDS011;38634;52.138;9.912;2024-02-21T12:56:07;31.77;;;8.07;;
52740;SDS011;38634;52.138;9.912;2024-02-21T12:58:51;55.90;;;12.57;;
52740;SDS011;38634;52.138;9.912;2024-02-21T13:01:36;60.70;;;12.43;;
52740;SDS011;38634;52.138;9.912;2024-02-21T13:04:21;22.23;;;6.50;;
52740;SDS011;38634;52.138;9.912;2024-02-21T13:07:06;32.33;;;7.55;;
52740;SDS011;38634;52.138;9.912;2024-02-21T13:09:51;50.75;;;11.13;;
52740;SDS011;38634;52.138;9.912;2024-02-21T13:12:37;51.50;;;12.73;;
52740;SDS011;38634;52.138;9.912;2024-02-21T13:15:22;29.80;;;8.18;;
52740;SDS011;38634;52.138;9.912;2024-02-21T13:18:06;33.45;;;8.10;;
52740;SDS011;38634;52.138;9.912;2024-02-21T13:20:51;39.05;;;8.85;;
52740;SDS011;38634;52.138;9.912;2024-02-21T13:23:35;51.20;;;11.73;;
52740;SDS011;38634;52.138;9.912;2024-02-21T13:26:20;42.40;;;9.85;;
52740;SDS011;38634;52.138;9.912;2024-02-21T13:29:05;21.63;;;6.80;;
52740;SDS011;38634;52.138;9.912;2024-02-21T13:31:49;34.75;;;7.78;;
52740;SDS011;38634;52.138;9.912;2024-02-21T13:34:34;43.22;;;9.75;;
52740;SDS011;38634;52.138;9.912;2024-02-21T13:37:18;47.60;;;10.38;;
52740;SDS011;38634;52.138;9.912;2024-02-21T13:40:03;30.65;;;6.93;;
52740;SDS011;38634;52.138;9.912;2024-02-21T13:42:49;27.85;;;6.35;;
52740;SDS011;38634;52.138;9.912;2024-02-21T13:45:40;49.75;;;10.55;;
52740;SDS011;38634;52.138;9.912;2024-02-21T13:48:28;29.45;;;6.88;;
52740;SDS011;38634;52.138;9.912;2024-02-21T13:51:13;30.60;;;7.80;;
52740;SDS011;38634;52.138;9.912;2024-02-21T13:54:00;50.88;;;11.35;;
52740;SDS011;38634;52.138;9.912;2024-02-21T13:56:47;47.92;;;10.15;;
52740;SDS011;38634;52.138;9.912;2024-02-21T13:59:32;26.52;;;5.95;;
52740;SDS011;38634;52.138;9.912;2024-02-21T14:02:17;25.80;;;6.03;;
52740;SDS011;38634;52.138;9.912;2024-02-21T14:05:02;47.58;;;10.25;;
52740;SDS011;38634;52.138;9.912;2024-02-21T14:07:49;49.13;;;10.27;;
52740;SDS011;38634;52.138;9.912;2024-02-21T14:10:34;26.40;;;6.30;;
52740;SDS011;38634;52.138;9.912;2024-02-21T14:13:18;31.38;;;6.75;;
52740;SDS011;38634;52.138;9.912;2024-02-21T14:16:08;52.08;;;11.85;;
52740;SDS011;38634;52.138;9.912;2024-02-21T14:18:57;29.73;;;7.25;;
52740;SDS011;38634;52.138;9.912;2024-02-21T14:21:41;32.65;;;7.35;;
52740;SDS011;38634;52.138;9.912;2024-02-21T14:24:26;44.75;;;9.82;;
52740;SDS011;38634;52.138;9.912;2024-02-21T14:27:11;46.35;;;10.68;;
52740;SDS011;38634;52.138;9.912;2024-02-21T14:29:56;33.88;;;7.63;;
52740;SDS011;38634;52.138;9.912;2024-02-21T14:32:43;32.33;;;6.82;;
52740;SDS011;38634;52.138;9.912;2024-02-21T14:35:28;46.42;;;10.07;;
52740;SDS011;38634;52.138;9.912;2024-02-21T14:38:13;45.78;;;9.82;;
52740;SDS011;38634;52.138;9.912;2024-02-21T14:40:58;26.70;;;5.95;;
52740;SDS011;38634;52.138;9.912;2024-02-21T14:43:42;32.85;;;7.43;;
52740;SDS011;38634;52.138;9.912;2024-02-21T14:46:27;43.78;;;9.20;;
52740;SDS011;38634;52.138;9.912;2024-02-21T14:49:12;47.80;;;10.15;;
52740;SDS011;38634;52.138;9.912;2024-02-21T14:51:56;42.63;;;9.43;;
52740;SDS011;38634;52.138;9.912;2024-02-21T14:54:41;29.30;;;6.72;;
52740;SDS011;38634;52.138;9.912;2024-02-21T14:57:29;51.97;;;10.88;;
52740;SDS011;38634;52.138;9.912;2024-02-21T15:00:14;50.95;;;10.75;;
52740;SDS011;38634;52.138;9.912;2024-02-21T15:02:59;36.72;;;7.68;;
52740;SDS011;38634;52.138;9.912;2024-02-21T15:05:44;38.47;;;8.90;;
52740;SDS011;38634;52.138;9.912;2024-02-21T15:08:29;45.90;;;9.55;;
52740;SDS011;38634;52.138;9.912;2024-02-21T15:11:14;52.58;;;10.75;;
52740;SDS011;38634;52.138;9.912;2024-02-21T15:13:58;39.88;;;9.05;;
52740;SDS011;38634;52.138;9.912;2024-02-21T15:16:43;28.38;;;5.88;;
52740;SDS011;38634;52.138;9.912;2024-02-21T15:19:28;32.33;;;7.25;;
52740;SDS011;38634;52.138;9.912;2024-02-21T15:22:13;50.05;;;11.00;;
52740;SDS011;38634;52.138;9.912;2024-02-21T15:24:57;38.25;;;8.20;;
52740;SDS011;38634;52.138;9.912;2024-02-21T15:27:42;35.78;;;9.30;;
52740;SDS011;38634;52.138;9.912;2024-02-21T15:30:28;40.80;;;8.63;;
52740;SDS011;38634;52.138;9.912;2024-02-21T15:33:15;47.38;;;11.23;;
52740;SDS011;38634;52.138;9.912;2024-02-21T15:36:00;37.75;;;8.23;;
52740;SDS011;38634;52.138;9.912;2024-02-21T15:38:45;32.30;;;7.30;;
52740;SDS011;38634;52.138;9.912;2024-02-21T15:41:30;49.80;;;10.90;;
52740;SDS011;38634;52.138;9.912;2024-02-21T15:44:14;47.97;;;10.25;;
52740;SDS011;38634;52.138;9.912;2024-02-21T15:47:00;40.22;;;9.35;;
52740;SDS011;38634;52.138;9.912;2024-02-21T15:49:45;29.67;;;6.47;;
52740;SDS011;38634;52.138;9.912;2024-02-21T15:52:29;50.40;;;10.60;;
52740;SDS011;38634;52.138;9.912;2024-02-21T15:55:14;41.45;;;8.82;;
52740;SDS011;38634;52.138;9.912;2024-02-21T15:58:01;40.20;;;8.43;;
52740;SDS011;38634;52.138;9.912;2024-02-21T16:00:48;34.70;;;7.25;;
52740;SDS011;38634;52.138;9.912;2024-02-21T16:03:33;53.88;;;10.57;;
52740;SDS011;38634;52.138;9.912;2024-02-21T16:06:17;57.97;;;11.57;;
52740;SDS011;38634;52.138;9.912;2024-02-21T16:09:02;39.75;;;7.75;;
52740;SDS011;38634;52.138;9.912;2024-02-21T16:11:48;43.78;;;9.73;;
52740;SDS011;38634;52.138;9.912;2024-02-21T16:14:33;44.30;;;9.73;;
52740;SDS011;38634;52.138;9.912;2024-02-21T16:17:21;51.85;;;11.57;;
52740;SDS011;38634;52.138;9.912;2024-02-21T16:20:06;35.55;;;8.27;;
52740;SDS011;38634;52.138;9.912;2024-02-21T16:22:53;41.47;;;8.68;;
52740;SDS011;38634;52.138;9.912;2024-02-21T16:25:46;39.03;;;8.20;;
52740;SDS011;38634;52.138;9.912;2024-02-21T16:28:32;32.80;;;7.07;;
52740;SDS011;38634;52.138;9.912;2024-02-21T16:31:16;47.72;;;9.68;;
52740;SDS011;38634;52.138;9.912;2024-02-21T16:34:01;54.05;;;11.18;;
52740;SDS011;38634;52.138;9.912;2024-02-21T16:36:46;48.17;;;9.40;;
52740;SDS011;38634;52.138;9.912;2024-02-21T16:39:31;28.90;;;6.30;;
52740;SDS011;38634;52.138;9.912;2024-02-21T16:42:15;37.88;;;7.50;;
52740;SDS011;38634;52.138;9.912;2024-02-21T16:45:00;57.50;;;11.27;;
52740;SDS011;38634;52.138;9.912;2024-02-21T16:47:45;50.58;;;10.30;;
52740;SDS011;38634;52.138;9.912;2024-02-21T16:50:30;29.38;;;6.45;;
52740;SDS011;38634;52.138;9.912;2024-02-21T16:53:14;38.40;;;7.95;;
52740;SDS011;38634;52.138;9.912;2024-02-21T16:56:00;49.55;;;10.43;;
52740;SDS011;38634;52.138;9.912;2024-02-21T16:58:46;45.55;;;9.27;;
52740;SDS011;38634;52.138;9.912;2024-02-21T17:01:34;36.63;;;7.80;;
52740;SDS011;38634;52.138;9.912;2024-02-21T17:04:22;52.70;;;10.50;;
52740;SDS011;38634;52.138;9.912;2024-02-21T17:07:07;53.20;;;10.25;;
52740;SDS011;38634;52.138;9.912;2024-02-21T17:09:52;34.33;;;7.38;;
52740;SDS011;38634;52.138;9.912;2024-02-21T17:12:36;35.25;;;7.68;;
52740;SDS011;38634;52.138;9.912;2024-02-21T17:15:21;38.17;;;8.70;;
52740;SDS011;38634;52.138;9.912;2024-02-21T17:18:05;57.95;;;11.30;;
52740;SDS011;38634;52.138;9.912;2024-02-21T17:20:50;32.38;;;6.80;;
52740;SDS011;38634;52.138;9.912;2024-02-21T17:23:35;29.08;;;6.28;;
52740;SDS011;38634;52.138;9.912;2024-02-21T17:26:19;38.40;;;7.82;;
52740;SDS011;38634;52.138;9.912;2024-02-21T17:29:05;50.33;;;10.30;;
52740;SDS011;38634;52.138;9.912;2024-02-21T17:31:50;40.10;;;8.35;;
52740;SDS011;38634;52.138;9.912;2024-02-21T17:34:35;31.90;;;7.05;;
52740;SDS011;38634;52.138;9.912;2024-02-21T17:37:19;33.65;;;7.20;;
52740;SDS011;38634;52.138;9.912;2024-02-21T17:40:04;53.63;;;10.52;;
52740;SDS011;38634;52.138;9.912;2024-02-21T17:42:53;37.25;;;8.52;;
52740;SDS011;38634;52.138;9.912;2024-02-21T17:45:37;30.30;;;7.28;;
52740;SDS011;38634;52.138;9.912;2024-02-21T17:48:23;41.70;;;8.52;;
52740;SDS011;38634;52.138;9.912;2024-02-21T17:51:08;48.83;;;10.00;;
52740;SDS011;38634;52.138;9.912;2024-02-21T17:53:52;47.30;;;8.88;;
52740;SDS011;38634;52.138;9.912;2024-02-21T17:56:37;26.77;;;5.90;;
52740;SDS011;38634;52.138;9.912;2024-02-21T17:59:22;44.08;;;9.25;;
52740;SDS011;38634;52.138;9.912;2024-02-21T18:02:07;46.75;;;9.40;;
52740;SDS011;38634;52.138;9.912;2024-02-21T18:04:51;51.45;;;10.00;;
52740;SDS011;38634;52.138;9.912;2024-02-21T18:07:36;31.55;;;7.18;;
52740;SDS011;38634;52.138;9.912;2024-02-21T18:10:21;43.70;;;9.15;;
52740;SDS011;38634;52.138;9.912;2024-02-21T18:13:05;52.08;;;10.48;;
52740;SDS011;38634;52.138;9.912;2024-02-21T18:15:50;20.23;;;4.72;;
52740;SDS011;38634;52.138;9.912;2024-02-21T18:18:34;17.02;;;4.47;;
52740;SDS011;38634;52.138;9.912;2024-02-21T18:21:19;19.83;;;4.38;;
52740;SDS011;38634;52.138;9.912;2024-02-21T18:24:03;20.58;;;4.93;;
52740;SDS011;38634;52.138;9.912;2024-02-21T18:26:48;18.80;;;4.32;;
52740;SDS011;38634;52.138;9.912;2024-02-21T18:29:33;18.23;;;4.47;;
52740;SDS011;38634;52.138;9.912;2024-02-21T18:32:19;17.90;;;4.22;;
52740;SDS011;38634;52.138;9.912;2024-02-21T18:35:03;15.38;;;3.75;;
52740;SDS011;38634;52.138;9.912;2024-02-21T18:37:49;15.20;;;4.40;;
52740;SDS011;38634;52.138;9.912;2024-02-21T18:40:33;17.08;;;4.72;;
52740;SDS011;38634;52.138;9.912;2024-02-21T18:43:18;14.40;;;3.55;;
52740;SDS011;38634;52.138;9.912;2024-02-21T18:46:03;16.17;;;4.10;;
52740;SDS011;38634;52.138;9.912;2024-02-21T18:48:48;14.70;;;3.67;;
52740;SDS011;38634;52.138;9.912;2024-02-21T18:51:33;24.42;;;5.43;;
52740;SDS011;38634;52.138;9.912;2024-02-21T18:54:17;17.90;;;4.45;;
52740;SDS011;38634;52.138;9.912;2024-02-21T18:57:02;16.42;;;4.22;;
52740;SDS011;38634;52.138;9.912;2024-02-21T18:59:46;17.80;;;4.50;;
52740;SDS011;38634;52.138;9.912;2024-02-21T19:02:31;16.65;;;4.97;;
52740;SDS011;38634;52.138;9.912;2024-02-21T19:05:16;19.70;;;6.65;;
52740;SDS011;38634;52.138;9.912;2024-02-21T19:08:00;14.23;;;3.45;;
52740;SDS011;38634;52.138;9.912;2024-02-21T19:10:45;17.20;;;4.13;;
52740;SDS011;38634;52.138;9.912;2024-02-21T19:13:30;17.00;;;4.18;;
52740;SDS011;38634;52.138;9.912;2024-02-21T19:16:14;17.23;;;4.57;;
52740;SDS011;38634;52.138;9.912;2024-02-21T19:18:59;13.38;;;3.60;;
52740;SDS011;38634;52.138;9.912;2024-02-21T19:21:43;22.75;;;5.72;;
52740;SDS011;38634;52.138;9.912;2024-02-21T19:24:28;14.88;;;3.78;;
52740;SDS011;38634;52.138;9.912;2024-02-21T19:27:13;16.38;;;4.22;;
52740;SDS011;38634;52.138;9.912;2024-02-21T19:29:57;13.40;;;3.80;;
52740;SDS011;38634;52.138;9.912;2024-02-21T19:32:42;13.80;;;3.70;;
52740;SDS011;38634;52.138;9.912;2024-02-21T19:35:26;12.10;;;3.40;;
52740;SDS011;38634;52.138;9.912;2024-02-21T19:38:11;16.88;;;4.07;;
52740;SDS011;38634;52.138;9.912;2024-02-21T19:40:56;12.75;;;3.80;;
52740;SDS011;38634;52.138;9.912;2024-02-21T19:43:41;15.10;;;3.95;;
52740;SDS011;38634;52.138;9.912;2024-02-21T19:46:25;15.45;;;4.05;;
52740;SDS011;38634;52.138;9.912;2024-02-21T19:49:10;12.85;;;3.42;;
52740;SDS011;38634;52.138;9.912;2024-02-21T19:51:55;17.50;;;4.20;;
52740;SDS011;38634;52.138;9.912;2024-02-21T19:54:39;16.77;;;4.03;;
52740;SDS011;38634;52.138;9.912;2024-02-21T19:57:24;16.40;;;4.22;;
52740;SDS011;38634;52.138;9.912;2024-02-21T20:00:09;18.50;;;4.75;;
52740;SDS011;38634;52.138;9.912;2024-02-21T20:02:54;16.65;;;4.13;;
52740;SDS011;38634;52.138;9.912;2024-02-21T20:05:38;13.93;;;3.65;;
52740;SDS011;38634;52.138;9.912;2024-02-21T20:08:26;17.10;;;4.30;;
52740;SDS011;38634;52.138;9.912;2024-02-21T20:11:10;15.38;;;3.88;;
52740;SDS011;38634;52.138;9.912;2024-02-21T20:13:55;9.43;;;2.83;;
52740;SDS011;38634;52.138;9.912;2024-02-21T20:16:40;13.23;;;3.80;;
52740;SDS011;38634;52.138;9.912;2024-02-21T20:19:25;14.02;;;3.90;;
52740;SDS011;38634;52.138;9.912;2024-02-21T20:22:09;15.73;;;4.25;;
52740;SDS011;38634;52.138;9.912;2024-02-21T20:24:54;15.13;;;4.25;;
52740;SDS011;38634;52.138;9.912;2024-02-21T20:27:39;17.05;;;5.45;;
52740;SDS011;38634;52.138;9.912;2024-02-21T20:30:23;13.20;;;3.70;;
52740;SDS011;38634;52.138;9.912;2024-02-21T20:33:08;17.15;;;5.28;;
52740;SDS011;38634;52.138;9.912;2024-02-21T20:35:52;16.17;;;3.97;;
52740;SDS011;38634;52.138;9.912;2024-02-21T20:38:37;20.33;;;4.97;;
52740;SDS011;38634;52.138;9.912;2024-02-21T20:41:22;19.92;;;4.55;;
52740;SDS011;38634;52.138;9.912;2024-02-21T20:44:07;21.48;;;4.78;;
52740;SDS011;38634;52.138;9.912;2024-02-21T20:46:51;16.52;;;4.40;;
52740;SDS011;38634;52.138;9.912;2024-02-21T20:49:36;18.98;;;8.93;;
52740;SDS011;38634;52.138;9.912;2024-02-21T20:52:20;13.35;;;4.10;;
52740;SDS011;38634;52.138;9.912;2024-02-21T20:55:05;15.35;;;4.07;;
52740;SDS011;38634;52.138;9.912;2024-02-21T20:57:50;21.60;;;5.00;;
52740;SDS011;38634;52.138;9.912;2024-02-21T21:00:35;15.82;;;4.05;;
52740;SDS011;38634;52.138;9.912;2024-02-21T21:03:20;17.48;;;4.00;;
52740;SDS011;38634;52.138;9.912;2024-02-21T21:06:05;20.52;;;4.82;;
52740;SDS011;38634;52.138;9.912;2024-02-21T21:08:50;20.38;;;5.15;;
52740;SDS011;38634;52.138;9.912;2024-02-21T21:11:35;23.73;;;4.97;;
52740;SDS011;38634;52.138;9.912;2024-02-21T21:14:23;13.77;;;3.50;;
52740;SDS011;38634;52.138;9.912;2024-02-21T21:17:10;13.65;;;3.53;;
52740;SDS011;38634;52.138;9.912;2024-02-21T21:19:54;14.80;;;4.15;;
52740;SDS011;38634;52.138;9.912;2024-02-21T21:22:39;11.60;;;3.88;;
52740;SDS011;38634;52.138;9.912;2024-02-21T21:25:24;12.20;;;3.67;;
52740;SDS011;38634;52.138;9.912;2024-02-21T21:28:08;16.50;;;3.92;;
52740;SDS011;38634;52.138;9.912;2024-02-21T21:30:53;20.30;;;4.65;;
52740;SDS011;38634;52.138;9.912;2024-02-21T21:33:38;16.60;;;4.03;;
52740;SDS011;38634;52.138;9.912;2024-02-21T21:36:22;17.70;;;4.38;;
52740;SDS011;38634;52.138;9.912;2024-02-21T21:39:07;16.33;;;3.90;;
52740;SDS011;38634;52.138;9.912;2024-02-21T21:41:51;15.60;;;4.00;;
52740;SDS011;38634;52.138;9.912;2024-02-21T21:44:36;14.68;;;3.92;;
52740;SDS011;38634;52.138;9.912;2024-02-21T21:47:21;10.70;;;3.13;;
52740;SDS011;38634;52.138;9.912;2024-02-21T21:50:06;17.25;;;4.68;;
52740;SDS011;38634;52.138;9.912;2024-02-21T21:52:51;9.48;;;3.38;;
52740;SDS011;38634;52.138;9.912;2024-02-21T21:55:35;13.57;;;4.38;;
52740;SDS011;38634;52.138;9.912;2024-02-21T21:58:20;11.43;;;3.55;;
52740;SDS011;38634;52.138;9.912;2024-02-21T22:01:04;14.48;;;4.45;;
52740;SDS011;38634;52.138;9.912;2024-02-21T22:03:49;14.00;;;4.10;;
52740;SDS011;38634;52.138;9.912;2024-02-21T22:06:34;13.23;;;3.95;;
52740;SDS011;38634;52.138;9.912;2024-02-21T22:09:19;10.17;;;3.27;;
52740;SDS011;38634;52.138;9.912;2024-02-21T22:12:03;12.60;;;4.45;;
52740;SDS011;38634;52.138;9.912;2024-02-21T22:14:48;10.90;;;3.85;;
52740;SDS011;38634;52.138;9.912;2024-02-21T22:17:33;12.15;;;3.72;;
52740;SDS011;38634;52.138;9.912;2024-02-21T22:20:17;10.45;;;3.55;;
52740;SDS011;38634;52.138;9.912;2024-02-21T22:23:05;16.95;;;4.93;;
52740;SDS011;38634;52.138;9.912;2024-02-21T22:25:50;11.93;;;3.53;;
52740;SDS011;38634;52.138;9.912;2024-02-21T22:28:35;10.82;;;3.63;;
52740;SDS011;38634;52.138;9.912;2024-02-21T22:31:19;16.33;;;4.25;;
52740;SDS011;38634;52.138;9.912;2024-02-21T22:34:04;14.63;;;4.20;;
52740;SDS011;38634;52.138;9.912;2024-02-21T22:36:49;17.10;;;5.30;;
52740;SDS011;38634;52.138;9.912;2024-02-21T22:39:34;14.25;;;3.70;;
52740;SDS011;38634;52.138;9.912;2024-02-21T22:42:18;14.82;;;3.83;;
52740;SDS011;38634;52.138;9.912;2024-02-21T22:45:03;15.70;;;4.35;;
52740;SDS011;38634;52.138;9.912;2024-02-21T22:47:48;13.27;;;3.72;;
52740;SDS011;38634;52.138;9.912;2024-02-21T22:50:33;14.35;;;3.83;;
52740;SDS011;38634;52.138;9.912;2024-02-21T22:53:17;12.75;;;3.60;;
52740;SDS011;38634;52.138;9.912;2024-02-21T22:56:02;15.15;;;3.80;;
52740;SDS011;38634;52.138;9.912;2024-02-21T22:58:47;15.65;;;4.03;;
52740;SDS011;38634;52.138;9.912;2024-02-21T23:01:33;19.35;;;4.88;;
52740;SDS011;38634;52.138;9.912;2024-02-21T23:04:19;11.60;;;3.92;;
52740;SDS011;38634;52.138;9.912;2024-02-21T23:07:04;15.07;;;4.55;;
52740;SDS011;38634;52.138;9.912;2024-02-21T23:09:48;14.82;;;4.15;;
52740;SDS011;38634;52.138;9.912;2024-02-21T23:12:33;14.90;;;4.40;;
52740;SDS011;38634;52.138;9.912;2024-02-21T23:15:18;18.33;;;4.22;;
52740;SDS011;38634;52.138;9.912;2024-02-21T23:18:03;15.15;;;4.00;;
52740;SDS011;38634;52.138;9.912;2024-02-21T23:20:47;15.52;;;4.80;;
52740;SDS011;38634;52.138;9.912;2024-02-21T23:23:37;12.82;;;3.75;;
52740;SDS011;38634;52.138;9.912;2024-02-21T23:26:25;15.73;;;4.03;;
52740;SDS011;38634;52.138;9.912;2024-02-21T23:29:11;14.70;;;3.88;;
52740;SDS011;38634;52.138;9.912;2024-02-21T23:31:55;15.95;;;4.00;;
52740;SDS011;38634;52.138;9.912;2024-02-21T23:34:40;14.85;;;4.00;;
52740;SDS011;38634;52.138;9.912;2024-02-21T23:37:25;10.68;;;3.95;;
52740;SDS011;38634;52.138;9.912;2024-02-21T23:40:09;10.82;;;3.50;;
52740;SDS011;38634;52.138;9.912;2024-02-21T23:42:54;14.63;;;3.92;;
52740;SDS011;38634;52.138;9.912;2024-02-21T23:45:39;13.48;;;4.18;;
52740;SDS011;38634;52.138;9.912;2024-02-21T23:48:23;11.18;;;3.60;;
52740;SDS011;38634;52.138;9.912;2024-02-21T23:51:08;12.23;;;3.80;;
52740;SDS011;38634;52.138;9.912;2024-02-21T23:53:52;18.48;;;4.47;;
52740;SDS011;38634;52.138;9.912;2024-02-21T23:56:41;17.27;;;3.88;;
52740;SDS011;38634;52.138;9.912;2024-02-21T23:59:29;15.85;;;4.28;;
